createdAt,value
2018-04-30T00:00:00.016Z,19.74
2018-04-30T00:02:28.283Z,19.71
2018-04-30T00:04:56.550Z,19.77
2018-04-30T00:07:24.861Z,19.77
2018-04-30T00:09:53.367Z,19.81
2018-04-30T00:12:21.647Z,19.75
2018-04-30T00:14:49.894Z,19.72
2018-04-30T00:17:19.682Z,19.71
2018-04-30T00:19:47.972Z,19.65
2018-04-30T00:22:16.285Z,19.57
2018-04-30T00:24:44.599Z,19.54
2018-04-30T00:27:12.869Z,19.54
2018-04-30T00:29:41.166Z,19.53
2018-04-30T00:32:09.448Z,19.66
2018-04-30T00:34:37.741Z,19.63
2018-04-30T00:37:06.801Z,19.59
2018-04-30T00:39:35.088Z,19.60
2018-04-30T00:42:03.458Z,19.57
2018-04-30T00:44:31.740Z,19.57
2018-04-30T00:47:00.015Z,19.58
2018-04-30T00:49:28.294Z,19.57
2018-04-30T00:51:56.584Z,19.50
2018-04-30T00:54:42.798Z,19.46
2018-04-30T00:57:11.844Z,19.46
2018-04-30T00:59:40.135Z,19.39
2018-04-30T01:02:08.676Z,19.28
2018-04-30T01:04:36.967Z,19.17
2018-04-30T01:07:05.272Z,19.20
2018-04-30T01:09:33.580Z,19.14
2018-04-30T01:12:01.840Z,19.05
2018-04-30T01:14:30.111Z,19.03
2018-04-30T01:16:58.379Z,19.02
2018-04-30T01:19:26.663Z,18.92
2018-04-30T01:21:54.952Z,18.90
2018-04-30T01:24:24.750Z,18.83
2018-04-30T01:26:53.042Z,18.78
2018-04-30T01:29:22.110Z,18.82
2018-04-30T01:31:50.405Z,18.78
2018-04-30T01:34:20.161Z,18.79
2018-04-30T01:36:48.431Z,18.81
2018-04-30T01:39:16.730Z,18.81
2018-04-30T01:41:45.033Z,18.81
2018-04-30T01:44:13.331Z,18.78
2018-04-30T01:46:42.394Z,18.80
2018-04-30T01:49:10.670Z,18.84
2018-04-30T01:51:38.959Z,18.96
2018-04-30T01:54:07.246Z,19.02
2018-04-30T01:56:35.519Z,19.02
2018-04-30T01:59:05.317Z,19.06
2018-04-30T02:01:33.691Z,19.07
2018-04-30T02:04:02.023Z,19.10
2018-04-30T02:06:30.316Z,19.11
2018-04-30T02:08:59.319Z,19.08
2018-04-30T02:11:27.574Z,19.06
2018-04-30T02:13:55.857Z,19.09
2018-04-30T02:16:24.253Z,19.01
2018-04-30T02:18:52.538Z,19.03
2018-04-30T02:21:20.825Z,19.03
2018-04-30T02:23:49.105Z,19.05
2018-04-30T02:26:17.370Z,19.02
2018-04-30T02:28:45.650Z,19.02
2018-04-30T02:31:13.946Z,19.08
2018-04-30T02:33:42.300Z,19.14
2018-04-30T02:36:12.026Z,19.18
2018-04-30T02:38:40.303Z,19.10
2018-04-30T02:41:08.583Z,19.13
2018-04-30T02:43:37.906Z,19.04
2018-04-30T02:46:06.973Z,19.02
2018-04-30T02:48:35.249Z,19.04
2018-04-30T02:51:03.534Z,19.08
2018-04-30T02:53:31.800Z,19.08
2018-04-30T02:56:00.085Z,19.09
2018-04-30T02:58:28.356Z,19.05
2018-04-30T03:00:58.159Z,18.95
2018-04-30T03:03:26.454Z,18.92
2018-04-30T03:05:55.543Z,19.00
2018-04-30T03:08:23.814Z,18.95
2018-04-30T03:10:52.898Z,18.97
2018-04-30T03:13:21.176Z,18.98
2018-04-30T03:15:49.454Z,19.13
2018-04-30T03:18:17.737Z,19.20
2018-04-30T03:20:46.014Z,19.12
2018-04-30T03:23:14.281Z,19.07
2018-04-30T03:25:42.573Z,19.09
2018-04-30T03:28:11.642Z,19.10
2018-04-30T03:30:39.928Z,19.07
2018-04-30T03:33:08.171Z,19.01
2018-04-30T03:35:36.446Z,18.97
2018-04-30T03:38:04.755Z,18.91
2018-04-30T03:40:33.029Z,18.92
2018-04-30T03:43:01.400Z,18.82
2018-04-30T03:45:29.687Z,18.79
2018-04-30T03:47:57.983Z,18.64
2018-04-30T03:50:26.256Z,18.47
2018-04-30T03:52:55.325Z,18.47
2018-04-30T03:55:23.611Z,18.30
2018-04-30T03:57:51.886Z,18.23
2018-04-30T04:00:38.150Z,18.19
2018-04-30T04:03:24.182Z,17.84
2018-04-30T04:06:10.447Z,17.78
2018-04-30T04:08:38.753Z,17.74
2018-04-30T04:11:07.006Z,17.76
2018-04-30T04:13:35.245Z,17.76
2018-04-30T04:16:04.259Z,17.56
2018-04-30T04:18:32.536Z,17.47
2018-04-30T04:21:00.848Z,17.51
2018-04-30T04:23:29.115Z,17.29
2018-04-30T04:25:57.353Z,17.03
2018-04-30T04:28:25.625Z,16.72
2018-04-30T04:30:54.674Z,16.52
2018-04-30T04:33:22.961Z,16.52
2018-04-30T04:35:51.253Z,16.53
2018-04-30T04:38:20.273Z,16.18
2018-04-30T04:40:48.506Z,16.02
2018-04-30T04:43:18.277Z,15.85
2018-04-30T04:45:46.500Z,15.61
2018-04-30T04:48:15.517Z,15.34
2018-04-30T04:50:44.520Z,15.28
2018-04-30T04:53:12.761Z,15.26
2018-04-30T04:55:42.505Z,15.18
2018-04-30T04:58:10.746Z,15.03
2018-04-30T05:00:39.249Z,14.93
2018-04-30T05:03:08.263Z,14.87
2018-04-30T05:05:36.572Z,14.65
2018-04-30T05:08:04.874Z,14.65
2018-04-30T05:10:33.932Z,14.62
2018-04-30T05:13:02.242Z,14.44
2018-04-30T05:15:30.516Z,14.46
2018-04-30T05:18:00.378Z,14.44
2018-04-30T05:20:28.597Z,14.41
2018-04-30T05:22:56.869Z,14.56
2018-04-30T05:25:25.156Z,14.61
2018-04-30T05:27:54.227Z,14.55
2018-04-30T05:30:22.529Z,14.30
2018-04-30T05:32:50.812Z,14.16
2018-04-30T05:35:19.834Z,14.08
2018-04-30T05:37:48.837Z,14.04
2018-04-30T05:40:17.156Z,14.07
2018-04-30T05:42:45.405Z,13.82
2018-04-30T05:45:13.642Z,13.74
2018-04-30T05:47:42.662Z,13.57
2018-04-30T05:50:10.918Z,13.61
2018-04-30T05:52:39.920Z,13.61
2018-04-30T05:55:08.224Z,13.53
2018-04-30T05:57:36.394Z,13.49
2018-04-30T06:00:04.638Z,13.79
2018-04-30T06:02:33.634Z,13.92
2018-04-30T06:05:02.654Z,13.90
2018-04-30T06:07:30.941Z,13.84
2018-04-30T06:09:59.182Z,13.82
2018-04-30T06:12:27.461Z,13.79
2018-04-30T06:14:55.727Z,13.65
2018-04-30T06:17:24.045Z,13.59
2018-04-30T06:19:52.344Z,13.55
2018-04-30T06:22:21.397Z,13.66
2018-04-30T06:24:50.539Z,13.57
2018-04-30T06:27:18.818Z,13.58
2018-04-30T06:29:47.109Z,13.32
2018-04-30T06:32:16.155Z,13.43
2018-04-30T06:34:44.397Z,13.40
2018-04-30T06:37:13.446Z,13.44
2018-04-30T06:39:43.253Z,13.61
2018-04-30T06:42:11.820Z,13.38
2018-04-30T06:44:40.100Z,13.31
2018-04-30T06:47:08.386Z,13.40
2018-04-30T06:49:37.692Z,13.44
2018-04-30T06:52:05.965Z,13.27
2018-04-30T06:54:34.249Z,13.15
2018-04-30T06:57:04.058Z,13.19
2018-04-30T06:59:32.531Z,12.99
2018-04-30T07:02:00.911Z,13.07
2018-04-30T07:04:29.191Z,13.18
2018-04-30T07:06:57.472Z,12.91
2018-04-30T07:09:27.305Z,13.00
2018-04-30T07:11:56.355Z,13.05
2018-04-30T07:14:24.893Z,13.08
2018-04-30T07:16:53.951Z,13.02
2018-04-30T07:19:22.226Z,12.90
2018-04-30T07:21:50.518Z,12.96
2018-04-30T07:24:19.584Z,12.95
2018-04-30T07:26:47.894Z,12.92
2018-04-30T07:29:17.700Z,13.00
2018-04-30T07:31:46.782Z,13.17
2018-04-30T07:34:15.063Z,13.26
2018-04-30T07:36:44.884Z,13.42
2018-04-30T07:39:13.953Z,13.37
2018-04-30T07:41:42.691Z,13.45
2018-04-30T07:44:11.732Z,13.68
2018-04-30T07:46:39.969Z,13.85
2018-04-30T07:49:08.430Z,13.72
2018-04-30T07:51:37.446Z,14.11
2018-04-30T07:54:05.725Z,14.01
2018-04-30T07:56:33.999Z,13.94
2018-04-30T07:59:02.318Z,13.80
2018-04-30T08:01:30.605Z,13.93
2018-04-30T08:04:00.404Z,13.92
2018-04-30T08:06:28.693Z,14.14
2018-04-30T08:08:58.488Z,14.28
2018-04-30T08:11:26.787Z,14.45
2018-04-30T08:13:55.065Z,14.47
2018-04-30T08:16:24.119Z,14.66
2018-04-30T08:18:52.425Z,14.91
2018-04-30T08:21:20.701Z,15.17
2018-04-30T08:23:48.988Z,15.66
2018-04-30T08:26:17.254Z,16.37
2018-04-30T08:28:45.831Z,16.49
2018-04-30T08:31:14.117Z,16.67
2018-04-30T08:33:42.383Z,16.56
2018-04-30T08:36:12.213Z,16.77
2018-04-30T08:38:41.270Z,17.21
2018-04-30T08:41:09.636Z,17.51
2018-04-30T08:43:37.860Z,17.60
2018-04-30T08:46:06.939Z,17.52
2018-04-30T08:48:35.238Z,17.51
2018-04-30T08:51:05.016Z,17.73
2018-04-30T08:53:33.310Z,17.95
2018-04-30T08:56:01.572Z,17.89
2018-04-30T08:58:29.855Z,17.50
2018-04-30T09:00:58.147Z,17.55
2018-04-30T09:03:27.936Z,17.85
2018-04-30T09:05:56.211Z,18.17
2018-04-30T09:08:25.237Z,18.04
2018-04-30T09:10:54.277Z,17.92
2018-04-30T09:13:22.572Z,18.03
2018-04-30T09:15:50.856Z,18.05
2018-04-30T09:18:19.144Z,18.42
2018-04-30T09:20:47.460Z,18.61
2018-04-30T09:23:17.232Z,18.79
2018-04-30T09:25:45.522Z,18.75
2018-04-30T09:28:15.447Z,18.99
2018-04-30T09:30:43.698Z,18.90
2018-04-30T09:33:13.502Z,18.90
2018-04-30T09:35:41.784Z,18.57
2018-04-30T09:38:10.805Z,19.21
2018-04-30T09:40:39.877Z,19.19
2018-04-30T09:43:09.687Z,19.30
2018-04-30T09:45:38.755Z,19.79
2018-04-30T09:48:07.047Z,19.79
2018-04-30T09:50:35.334Z,20.11
2018-04-30T09:53:03.625Z,19.73
2018-04-30T09:55:31.909Z,19.75
2018-04-30T09:58:00.976Z,19.88
2018-04-30T10:00:29.234Z,20.05
2018-04-30T10:02:57.541Z,20.41
2018-04-30T10:05:27.329Z,20.60
2018-04-30T10:07:55.629Z,20.86
2018-04-30T10:10:24.718Z,21.11
2018-04-30T10:12:53.768Z,20.92
2018-04-30T10:15:22.076Z,20.65
2018-04-30T10:17:50.382Z,20.97
2018-04-30T10:20:20.157Z,21.07
2018-04-30T10:22:48.444Z,21.18
2018-04-30T10:25:16.737Z,20.86
2018-04-30T10:27:45.013Z,20.60
2018-04-30T10:30:14.800Z,20.45
2018-04-30T10:32:43.095Z,20.92
2018-04-30T10:35:11.383Z,21.58
2018-04-30T10:37:41.209Z,21.88
2018-04-30T10:40:10.264Z,22.23
2018-04-30T10:42:38.660Z,22.24
2018-04-30T10:45:06.920Z,21.83
2018-04-30T10:47:35.197Z,21.27
2018-04-30T10:50:03.482Z,21.22
2018-04-30T10:52:33.286Z,20.89
2018-04-30T10:55:01.576Z,20.54
2018-04-30T10:57:31.372Z,20.22
2018-04-30T10:59:59.675Z,19.92
2018-04-30T11:02:28.737Z,19.93
2018-04-30T11:04:57.028Z,19.98
2018-04-30T11:07:25.292Z,19.65
2018-04-30T11:09:53.588Z,19.64
2018-04-30T11:12:21.944Z,19.42
2018-04-30T11:14:50.209Z,19.30
2018-04-30T11:17:18.502Z,19.12
2018-04-30T11:19:46.774Z,19.23
2018-04-30T11:22:15.046Z,19.49
2018-04-30T11:24:43.348Z,19.59
2018-04-30T11:27:11.610Z,19.74
2018-04-30T11:29:40.173Z,19.78
2018-04-30T11:32:08.464Z,19.99
2018-04-30T11:34:36.758Z,19.85
2018-04-30T11:37:05.050Z,20.19
2018-04-30T11:39:33.326Z,20.09
2018-04-30T11:42:02.478Z,19.90
2018-04-30T11:44:30.757Z,19.80
2018-04-30T11:46:59.068Z,19.68
2018-04-30T11:49:28.040Z,19.59
2018-04-30T11:51:56.319Z,19.44
2018-04-30T11:54:24.618Z,19.62
2018-04-30T11:56:54.406Z,19.66
2018-04-30T11:59:22.715Z,19.74
2018-04-30T12:01:51.802Z,19.51
2018-04-30T12:04:20.089Z,19.18
2018-04-30T12:06:49.146Z,19.57
2018-04-30T12:09:17.432Z,20.25
2018-04-30T12:11:45.698Z,20.68
2018-04-30T12:14:13.974Z,20.84
2018-04-30T12:16:42.255Z,21.03
2018-04-30T12:19:10.540Z,21.15
2018-04-30T12:21:38.812Z,21.43
2018-04-30T12:24:07.874Z,21.87
2018-04-30T12:26:36.174Z,21.51
2018-04-30T12:29:05.234Z,21.30
2018-04-30T12:31:33.775Z,20.82
2018-04-30T12:34:02.847Z,20.58
2018-04-30T12:36:31.129Z,20.47
2018-04-30T12:38:59.404Z,20.11
2018-04-30T12:41:27.867Z,20.14
2018-04-30T12:43:56.146Z,20.18
2018-04-30T12:46:24.430Z,20.50
2018-04-30T12:48:53.534Z,20.75
2018-04-30T12:51:22.616Z,21.00
2018-04-30T12:53:50.899Z,21.44
2018-04-30T12:56:19.962Z,21.45
2018-04-30T12:58:48.222Z,21.38
2018-04-30T13:01:16.536Z,21.62
2018-04-30T13:03:44.828Z,22.01
2018-04-30T13:06:13.111Z,22.35
2018-04-30T13:08:41.368Z,22.49
2018-04-30T13:11:09.665Z,22.53
2018-04-30T13:13:38.734Z,22.38
2018-04-30T13:16:07.017Z,22.16
2018-04-30T13:18:35.292Z,21.90
2018-04-30T13:21:03.534Z,21.49
2018-04-30T13:23:31.838Z,21.14
2018-04-30T13:26:00.113Z,20.79
2018-04-30T13:28:28.489Z,20.55
2018-04-30T13:30:56.755Z,20.45
2018-04-30T13:33:25.069Z,20.60
2018-04-30T13:36:01.222Z,20.81
2018-04-30T13:38:29.499Z,20.84
2018-04-30T13:40:57.775Z,21.17
2018-04-30T13:43:27.571Z,21.69
2018-04-30T13:45:55.834Z,21.98
2018-04-30T13:48:24.136Z,21.98
2018-04-30T13:50:52.408Z,22.12
2018-04-30T13:53:20.684Z,22.33
2018-04-30T13:55:48.961Z,22.43
2018-04-30T13:58:18.047Z,22.41
2018-04-30T14:00:46.337Z,22.10
2018-04-30T14:03:15.407Z,21.96
2018-04-30T14:05:43.716Z,22.02
2018-04-30T14:08:12.004Z,21.44
2018-04-30T14:10:41.069Z,21.89
2018-04-30T14:13:09.373Z,22.04
2018-04-30T14:15:38.667Z,22.24
2018-04-30T14:18:08.468Z,22.47
2018-04-30T14:20:36.749Z,22.30
2018-04-30T14:23:05.021Z,22.44
2018-04-30T14:25:34.082Z,22.24
2018-04-30T14:28:02.358Z,22.18
2018-04-30T14:30:30.649Z,22.08
2018-04-30T14:32:58.936Z,22.03
2018-04-30T14:35:27.211Z,21.87
2018-04-30T14:37:55.495Z,21.75
2018-04-30T14:40:23.791Z,21.70
2018-04-30T14:42:52.891Z,21.41
2018-04-30T14:45:21.150Z,21.34
2018-04-30T14:47:50.210Z,21.12
2018-04-30T14:50:18.506Z,20.91
2018-04-30T14:52:46.799Z,20.75
2018-04-30T14:55:16.687Z,20.64
2018-04-30T14:57:44.989Z,20.54
2018-04-30T15:00:13.274Z,20.67
2018-04-30T15:02:42.327Z,20.78
2018-04-30T15:05:10.637Z,20.65
2018-04-30T15:07:39.689Z,20.56
2018-04-30T15:10:07.992Z,20.42
2018-04-30T15:12:36.276Z,20.33
2018-04-30T15:15:05.356Z,20.27
2018-04-30T15:17:33.647Z,20.20
2018-04-30T15:20:02.724Z,20.10
2018-04-30T15:22:31.016Z,20.11
2018-04-30T15:24:59.296Z,20.08
2018-04-30T15:27:27.612Z,19.99
2018-04-30T15:29:55.925Z,20.03
2018-04-30T15:32:24.233Z,19.98
2018-04-30T15:34:52.509Z,19.95
2018-04-30T15:37:22.324Z,19.89
2018-04-30T15:39:51.363Z,19.85
2018-04-30T15:42:19.667Z,19.84
2018-04-30T15:44:47.966Z,19.81
2018-04-30T15:47:16.253Z,19.92
2018-04-30T15:49:45.275Z,19.85
2018-04-30T15:52:13.551Z,19.73
2018-04-30T15:54:41.850Z,19.73
2018-04-30T15:57:10.113Z,19.74
2018-04-30T15:59:38.399Z,19.72
2018-04-30T16:02:06.674Z,19.84
2018-04-30T16:04:34.960Z,19.87
2018-04-30T16:07:03.264Z,19.84
2018-04-30T16:09:31.546Z,19.79
2018-04-30T16:11:59.821Z,19.92
2018-04-30T16:14:28.098Z,19.92
2018-04-30T16:16:56.348Z,19.84
2018-04-30T16:19:24.633Z,19.81
2018-04-30T16:21:52.912Z,19.76
2018-04-30T16:24:22.729Z,19.62
2018-04-30T16:26:51.002Z,19.52
2018-04-30T16:29:20.810Z,19.61
2018-04-30T16:31:49.088Z,19.50
2018-04-30T16:34:18.175Z,19.51
2018-04-30T16:36:47.262Z,19.46
2018-04-30T16:39:15.572Z,19.50
2018-04-30T16:41:44.625Z,19.50
2018-04-30T16:44:12.901Z,19.51
2018-04-30T16:46:41.197Z,19.49
2018-04-30T16:49:09.561Z,19.39
2018-04-30T16:51:37.863Z,19.29
2018-04-30T16:57:06.689Z,19.21
2018-04-30T16:59:34.963Z,19.17
2018-04-30T17:02:03.226Z,19.12
2018-04-30T17:04:31.503Z,19.09
2018-04-30T17:07:00.572Z,19.10
2018-04-30T17:09:28.841Z,19.02
2018-04-30T17:11:57.141Z,18.93
2018-04-30T17:14:25.406Z,18.93
2018-04-30T17:16:53.690Z,18.88
2018-04-30T17:19:22.199Z,18.86
2018-04-30T17:21:50.467Z,18.86
2018-04-30T17:24:18.774Z,18.81
2018-04-30T17:26:48.204Z,18.77
2018-04-30T17:29:16.490Z,18.65
2018-04-30T17:31:44.761Z,18.66
2018-04-30T17:34:13.053Z,18.60
2018-04-30T17:36:41.403Z,18.60
2018-04-30T17:39:10.445Z,18.59
2018-04-30T17:41:38.801Z,18.60
2018-04-30T17:44:07.002Z,18.54
2018-04-30T17:46:36.044Z,18.49
2018-04-30T17:49:04.328Z,18.47
2018-04-30T17:51:32.598Z,18.48
2018-04-30T17:54:00.961Z,18.53
2018-04-30T17:56:29.186Z,18.56
2018-04-30T17:58:57.535Z,18.50
2018-04-30T18:01:25.908Z,18.45
2018-04-30T18:03:54.565Z,18.46
2018-04-30T18:06:22.844Z,18.47
2018-04-30T18:08:51.119Z,18.39
2018-04-30T18:11:19.408Z,18.29
2018-04-30T18:13:47.704Z,18.32
2018-04-30T18:16:15.974Z,18.46
2018-04-30T18:18:45.015Z,18.43
2018-04-30T18:21:13.298Z,18.37
2018-04-30T18:23:41.703Z,18.37
2018-04-30T18:26:10.081Z,18.41
2018-04-30T18:28:38.374Z,18.36
2018-04-30T18:31:06.647Z,18.38
2018-04-30T18:33:34.937Z,18.43
2018-04-30T18:36:03.225Z,18.43
2018-04-30T18:38:32.023Z,18.41
2018-04-30T18:41:00.394Z,18.31
2018-04-30T18:43:29.440Z,18.17
2018-04-30T18:45:57.747Z,17.72
2018-04-30T18:48:26.094Z,17.15
2018-04-30T18:50:54.381Z,16.81
2018-04-30T18:53:22.685Z,16.15
2018-04-30T18:55:51.047Z,15.95
2018-04-30T18:58:19.344Z,15.84
2018-04-30T19:00:47.939Z,15.87
2018-04-30T19:03:16.239Z,15.69
2018-04-30T19:05:44.502Z,15.69
2018-04-30T19:08:12.808Z,15.64
2018-04-30T19:10:41.104Z,15.73
2018-04-30T19:13:09.423Z,15.66
2018-04-30T19:15:37.711Z,15.73
2018-04-30T19:18:06.058Z,15.86
2018-04-30T19:20:34.488Z,15.84
2018-04-30T19:23:02.759Z,15.77
2018-04-30T19:25:31.017Z,15.67
2018-04-30T19:28:05.739Z,15.56
2018-04-30T19:30:34.162Z,15.57
2018-04-30T19:33:02.547Z,15.48
2018-04-30T19:35:30.839Z,15.53
2018-04-30T19:37:59.461Z,15.48
2018-04-30T19:40:27.736Z,15.50
2018-04-30T19:42:56.942Z,15.52
2018-04-30T19:45:26.333Z,15.59
2018-04-30T19:47:54.913Z,15.61
2018-04-30T19:50:23.194Z,15.60
2018-04-30T19:52:51.494Z,15.66
2018-04-30T19:55:19.900Z,15.70
2018-04-30T19:57:48.944Z,15.69
2018-04-30T20:00:17.206Z,15.73
2018-04-30T20:02:45.494Z,15.76
2018-04-30T20:05:13.780Z,15.73
2018-04-30T20:07:42.475Z,15.75
2018-04-30T20:10:10.776Z,15.65
2018-04-30T20:12:39.248Z,15.65
2018-04-30T20:15:07.536Z,15.66
2018-04-30T20:17:36.539Z,15.77
2018-04-30T20:20:05.786Z,15.64
2018-04-30T20:22:34.030Z,15.56
2018-04-30T20:25:02.262Z,15.57
2018-04-30T20:27:30.926Z,15.54
2018-04-30T20:29:59.164Z,15.52
2018-04-30T20:32:27.394Z,15.43
2018-04-30T20:34:55.639Z,15.41
2018-04-30T20:37:23.875Z,15.38
2018-04-30T20:39:52.878Z,15.47
2018-04-30T20:42:21.126Z,15.37
2018-04-30T20:44:50.137Z,15.39
2018-04-30T20:47:19.233Z,15.31
2018-04-30T20:49:48.234Z,15.28
2018-04-30T20:52:16.481Z,15.37
2018-04-30T20:54:45.485Z,15.42
2018-04-30T20:57:14.504Z,15.45
2018-04-30T20:59:42.770Z,15.48
2018-04-30T21:02:11.149Z,15.50
2018-04-30T21:04:39.445Z,15.46
2018-04-30T21:07:07.690Z,15.46
2018-04-30T21:09:36.894Z,15.47
2018-04-30T21:12:05.897Z,15.41
2018-04-30T21:14:34.150Z,15.45
2018-04-30T21:17:03.151Z,15.43
2018-04-30T21:19:32.146Z,15.44
2018-04-30T21:22:00.398Z,15.41
2018-04-30T21:24:28.643Z,15.36
2018-04-30T21:26:57.807Z,15.33
2018-04-30T21:29:26.045Z,15.35
2018-04-30T21:31:54.289Z,15.36
2018-04-30T21:34:22.526Z,15.35
2018-04-30T21:36:50.793Z,15.33
2018-04-30T21:39:19.038Z,15.38
2018-04-30T21:41:47.295Z,15.48
2018-04-30T21:44:15.533Z,15.43
2018-04-30T21:46:43.796Z,15.37
2018-04-30T21:49:12.813Z,15.39
2018-04-30T21:51:41.047Z,15.44
2018-04-30T21:54:10.365Z,15.40
2018-04-30T21:56:39.370Z,15.35
2018-04-30T21:59:07.607Z,15.32
2018-04-30T22:01:35.850Z,15.36
2018-04-30T22:04:04.090Z,15.33
2018-04-30T22:06:32.343Z,15.37
2018-04-30T22:09:01.450Z,15.37
2018-04-30T22:11:30.466Z,15.40
2018-04-30T22:13:58.714Z,15.37
2018-04-30T22:16:27.714Z,15.34
2018-04-30T22:18:56.181Z,15.32
2018-04-30T22:21:24.406Z,15.33
2018-04-30T22:23:52.647Z,15.29
2018-04-30T22:26:20.985Z,15.26
2018-04-30T22:28:49.209Z,15.19
2018-04-30T22:31:17.461Z,15.24
2018-04-30T22:33:46.478Z,15.27
2018-04-30T22:36:14.717Z,15.22
2018-04-30T22:38:43.288Z,15.24
2018-04-30T22:41:11.530Z,15.18
2018-04-30T22:43:39.767Z,15.18
2018-04-30T22:46:08.781Z,15.18
2018-04-30T22:48:37.013Z,15.15
2018-04-30T22:51:05.258Z,15.12
2018-04-30T22:53:33.515Z,15.13
2018-04-30T22:56:01.741Z,15.14
2018-04-30T22:58:30.753Z,15.12
2018-04-30T23:00:59.769Z,15.22
2018-04-30T23:03:28.017Z,15.20
2018-04-30T23:05:57.022Z,15.20
2018-04-30T23:08:26.017Z,15.27
2018-04-30T23:10:55.013Z,15.34
2018-04-30T23:13:23.263Z,15.25
2018-04-30T23:15:51.500Z,15.24
2018-04-30T23:18:19.738Z,15.27
2018-04-30T23:20:48.014Z,15.33
2018-04-30T23:23:17.106Z,15.34
2018-04-30T23:25:46.122Z,15.31
2018-04-30T23:28:14.361Z,15.32
2018-04-30T23:30:42.590Z,15.20
2018-04-30T23:33:11.129Z,15.18
2018-04-30T23:35:40.130Z,15.13
2018-04-30T23:38:08.423Z,15.12
2018-04-30T23:40:36.661Z,15.07
2018-04-30T23:43:05.665Z,15.03
2018-04-30T23:45:34.666Z,15.00
2018-04-30T23:48:03.254Z,14.90
2018-04-30T23:50:31.481Z,14.78
2018-04-30T23:52:59.713Z,14.75
2018-04-30T23:55:27.955Z,14.71
2018-04-30T23:57:56.189Z,14.71
